Clarksville, AR

10:37 AM CDT on April 28, 2015 (GMT -0500)
Fort Smith Regional | | Change Station
CLOSE
Current Station
Airport
Location: Fort Smith,
Elevation: 463 ft
Nearby Weather Stations

Elev 463 ft 35.33 °N, 94.36 °W | Updated 44 minutes ago

Overcast
Overcast
53 °F
Feels Like 53 °F
N
6
Wind Variable Wind from WNW

Today
High -- | Low -- °F
--% Chance of Precip.
Yesterday
High -- | Low -- °F
Precip. -- in
6:25 AM 7:57 PM
Waxing Gibbous, 74% visible
Pressure 30.09 in
Visibility 10.0 miles
Clouds Overcast 9000 ft
Dew Point 49 °F
Humidity 86%
Rainfall 0.63 in
Snow Depth Not available.
UV 2 out of 12
Pollen 8.50 out of 12
Air Quality Not available.
Flu Activity Sporadic
METAR KFSM 281453Z 30005KT 10SM OVC090 12/09 A3009 RMK AO2 RAB1356E19 SLP187 P0000 60017 T01170094 51012

More Conditions Fewer Conditions

Pressure 30.09 in
Visibility 10.0 miles
Clouds Overcast 9000 ft
Dew Point 49 °F
Humidity 86%
Rainfall 0.63 in
Snow Depth Not available.
UV 2 out of 12
Pollen 8.50 out of 12
Air Quality Not available.
Flu Activity Sporadic
METAR KFSM 281453Z 30005KT 10SM OVC090 12/09 A3009 RMK AO2 RAB1356E19 SLP187 P0000 60017 T01170094 51012

More Conditions Fewer Conditions

10-Day Weather Forecast

Almanac

Astronomy

Apr. 28, 2015 Rise Set
Actual Time
Civil Twilight
Nautical Twilight
Astronomical Twilight
Moon
Length of Visible Light
Length of Day
Tomorrow will be .
, % of the Moon is Illuminated

Today's Extremes

State Highs State Lows

Community

WunderPhotos

Upload Photos

1,817,675 photos uploaded!

WunderBlogs® & News

Nearby

Air Quality

  Air Quality AQ Index Pollutant
Not available.

Snow Depth

Station Depth Elevation

Earthquake Activity

City Distance Mag. Time & Date
Minimum magnitude displayed is 2.5.

Coastal Water Temperatures

Place Temperature

Stations

Nearby Weather Stations

Station Location Temp. Windchill Dew Point Humidity Wind Precip. Elev Updated Type